GOWZY EIKN-LFRW
Flight info
| Callsign | GOWZY |
|---|---|
| Flight time | N/A |
| Altitude | 3000 |
| Route | DCT |
| Aircraft | TBM8/L-SDFGRWY/S |
Departure
| Time | 2026-04-19 11:42 |
|---|---|
| Airport | Ireland West Airport Knock (EIKN) |
Arrival
| Time | N/A |
|---|---|
| Airport | Avranches Le Val-Saint-Père Airfield (LFRW) |
| Time | Latitude | Longitude | Altitude | Speed | Heading |
|---|---|---|---|---|---|
| 2026-04-19 11:33 | 53.91368 | -8.81020 | 651 ft | 0 kts | 351° |
| 2026-04-19 11:38 | 53.91358 | -8.81017 | 651 ft | 0 kts | 353° |
| 2026-04-19 11:38 | 53.91363 | -8.81013 | 651 ft | 1 kts | 54° |
| 2026-04-19 11:38 | 53.91361 | -8.80981 | 652 ft | 5 kts | 111° |
| 2026-04-19 11:38 | 53.91334 | -8.80920 | 653 ft | 9 kts | 159° |
| 2026-04-19 11:39 | 53.91280 | -8.80900 | 653 ft | 0 kts | 167° |
| 2026-04-19 11:39 | 53.91251 | -8.80891 | 653 ft | 8 kts | 169° |
| 2026-04-19 11:39 | 53.91185 | -8.80868 | 655 ft | 9 kts | 164° |
| 2026-04-19 11:40 | 53.91158 | -8.80781 | 657 ft | 11 kts | 83° |
| 2026-04-19 11:40 | 53.91176 | -8.80624 | 660 ft | 17 kts | 79° |
| 2026-04-19 11:40 | 53.91206 | -8.80413 | 664 ft | 19 kts | 73° |
| 2026-04-19 11:40 | 53.91230 | -8.80241 | 667 ft | 2 kts | 90° |
| 2026-04-19 11:41 | 53.91218 | -8.80251 | 666 ft | 6 kts | 270° |
| 2026-04-19 11:41 | 53.91216 | -8.80278 | 666 ft | 0 kts | 259° |
| 2026-04-19 11:41 | 53.91193 | -8.80477 | 663 ft | 46 kts | 258° |
| 2026-04-19 11:41 | 53.91090 | -8.81356 | 656 ft | 101 kts | 258° |
| 2026-04-19 11:42 | 53.90966 | -8.82690 | 809 ft | 127 kts | 261° |
| 2026-04-19 11:42 | 53.90838 | -8.84308 | 1064 ft | 149 kts | 262° |
| 2026-04-19 11:42 | 53.90691 | -8.86108 | 1467 ft | 158 kts | 262° |
| 2026-04-19 11:42 | 53.90531 | -8.88003 | 1827 ft | 167 kts | 262° |
| 2026-04-19 11:43 | 53.90383 | -8.90020 | 2097 ft | 175 kts | 263° |
| 2026-04-19 11:43 | 53.90243 | -8.92047 | 2308 ft | 175 kts | 263° |
| 2026-04-19 11:43 | 53.90101 | -8.94144 | 2334 ft | 182 kts | 263° |
| 2026-04-19 11:43 | 53.89941 | -8.96269 | 2411 ft | 179 kts | 262° |
| 2026-04-19 11:44 | 53.89572 | -8.98226 | 2430 ft | 174 kts | 238° |
| 2026-04-19 11:44 | 53.88636 | -8.99466 | 2417 ft | 176 kts | 198° |
| 2026-04-19 11:44 | 53.87408 | -8.99726 | 2306 ft | 179 kts | 184° |
| 2026-04-19 11:44 | 53.86181 | -8.99775 | 2340 ft | 175 kts | 179° |
| 2026-04-19 11:45 | 53.84978 | -8.99593 | 2379 ft | 173 kts | 173° |
| 2026-04-19 11:45 | 53.83775 | -8.99391 | 2333 ft | 174 kts | 176° |
| 2026-04-19 11:45 | 53.82573 | -8.99198 | 2327 ft | 173 kts | 175° |
| 2026-04-19 11:45 | 53.81366 | -8.99011 | 2273 ft | 175 kts | 175° |
| 2026-04-19 11:46 | 53.80158 | -8.98798 | 2258 ft | 173 kts | 174° |
| 2026-04-19 11:46 | 53.78953 | -8.98566 | 2192 ft | 175 kts | 170° |
| 2026-04-19 11:46 | 53.77908 | -8.97618 | 2197 ft | 173 kts | 135° |
| 2026-04-19 11:46 | 53.77377 | -8.95851 | 2223 ft | 170 kts | 102° |
| 2026-04-19 11:47 | 53.77139 | -8.93868 | 2138 ft | 174 kts | 101° |
| 2026-04-19 11:47 | 53.76936 | -8.91854 | 2088 ft | 174 kts | 100° |
| 2026-04-19 11:47 | 53.76688 | -8.89872 | 2090 ft | 171 kts | 103° |
| 2026-04-19 11:47 | 53.76416 | -8.87915 | 2082 ft | 171 kts | 102° |
| 2026-04-19 11:48 | 53.76152 | -8.85954 | 2049 ft | 171 kts | 103° |
| 2026-04-19 11:48 | 53.75842 | -8.84024 | 2073 ft | 169 kts | 106° |
| 2026-04-19 11:48 | 53.75509 | -8.82136 | 2072 ft | 168 kts | 105° |
| 2026-04-19 11:48 | 53.75252 | -8.80209 | 2058 ft | 168 kts | 101° |
| 2026-04-19 11:49 | 53.75025 | -8.78275 | 2061 ft | 167 kts | 98° |
| 2026-04-19 11:49 | 53.74905 | -8.76339 | 2103 ft | 165 kts | 94° |
| 2026-04-19 11:49 | 53.74817 | -8.74410 | 2133 ft | 164 kts | 93° |
| 2026-04-19 11:49 | 53.74730 | -8.72480 | 2129 ft | 165 kts | 97° |
| 2026-04-19 11:50 | 53.74556 | -8.70568 | 2132 ft | 165 kts | 99° |
| 2026-04-19 11:50 | 53.74350 | -8.68658 | 2123 ft | 166 kts | 102° |
| 2026-04-19 11:50 | 53.74113 | -8.66758 | 2142 ft | 165 kts | 102° |
| 2026-04-19 11:50 | 53.73876 | -8.64866 | 2147 ft | 164 kts | 102° |
| 2026-04-19 11:51 | 53.73630 | -8.62985 | 2163 ft | 163 kts | 101° |
| 2026-04-19 11:51 | 53.73431 | -8.61099 | 2190 ft | 163 kts | 99° |
| 2026-04-19 11:51 | 53.73233 | -8.59206 | 2175 ft | 164 kts | 98° |
| 2026-04-19 11:51 | 53.73069 | -8.57311 | 2190 ft | 163 kts | 98° |
| 2026-04-19 11:52 | 53.72906 | -8.55413 | 2190 ft | 163 kts | 97° |
| 2026-04-19 11:52 | 53.72736 | -8.53523 | 2204 ft | 163 kts | 98° |
| 2026-04-19 11:52 | 53.72573 | -8.51635 | 2200 ft | 162 kts | 99° |
| 2026-04-19 11:52 | 53.72326 | -8.49771 | 2179 ft | 163 kts | 103° |
| 2026-04-19 11:53 | 53.72027 | -8.47917 | 2153 ft | 164 kts | 105° |
| 2026-04-19 11:53 | 53.71752 | -8.46059 | 2182 ft | 162 kts | 102° |
| 2026-04-19 11:53 | 53.71512 | -8.44210 | 2182 ft | 162 kts | 103° |
| 2026-04-19 11:53 | 53.70923 | -8.42662 | 2196 ft | 160 kts | 148° |
| 2026-04-19 11:54 | 53.69868 | -8.42325 | 2265 ft | 158 kts | 189° |
| 2026-04-19 11:54 | 53.68893 | -8.43198 | 2229 ft | 161 kts | 217° |
| 2026-04-19 11:54 | 53.68011 | -8.44354 | 2286 ft | 159 kts | 214° |
| 2026-04-19 11:54 | 53.67030 | -8.45212 | 2279 ft | 162 kts | 202° |
| 2026-04-19 11:55 | 53.65969 | -8.45925 | 2180 ft | 166 kts | 201° |
| 2026-04-19 11:55 | 53.64900 | -8.46605 | 2195 ft | 163 kts | 194° |
| 2026-04-19 11:55 | 53.63811 | -8.47105 | 2195 ft | 162 kts | 202° |
| 2026-04-19 11:55 | 53.62848 | -8.48093 | 2196 ft | 162 kts | 214° |
| 2026-04-19 11:56 | 53.61939 | -8.49174 | 2197 ft | 162 kts | 214° |
| 2026-04-19 11:56 | 53.61016 | -8.50258 | 2194 ft | 162 kts | 214° |
| 2026-04-19 11:56 | 53.60082 | -8.51353 | 2190 ft | 161 kts | 213° |
| 2026-04-19 11:56 | 53.59158 | -8.52429 | 2188 ft | 162 kts | 213° |
| 2026-04-19 11:57 | 53.58230 | -8.53508 | 2189 ft | 162 kts | 213° |